Silica, Minnesota
Current Conditions -  °F | °C
As of 6:23 AM on Thursday 23 Oct 2014 (Local Time) from KHIB Reporting Station
Overcast Overcast  
Wind Chill: 46°   Ceiling: 300
Heat Index: 48°   Visibility: 7mi
Dew Point: 45°   Wind: 5mph
Humidity: 89%   Direction: 180°S
Pressure: 29.93"   Gusts: NA
Location:  47.4158°N, 93.0053°W
Report Text: KHIB 231123Z AUTO 18004KT 7SM OVC003 09/07 A2993 RMK AO2 RAE04 P0000 T00890072
Loading
Personal Weather Stations






























Interactive Weather Map
Tropical Storm Tracking
New forecast layout! Learn more

10-Day Weather Forecast

Advertisements
Track Severe Weather on mobile